sensor_id;sensor_type;location;lat;lon;timestamp;P1;durP1;ratioP1;P2;durP2;ratioP2
1206;SDS011;593;53.184;8.216;2023-08-07T00:00:28;2.07;;;1.87;;
1206;SDS011;593;53.184;8.216;2023-08-07T00:02:53;3.77;;;2.10;;
1206;SDS011;593;53.184;8.216;2023-08-07T00:05:19;4.03;;;2.00;;
1206;SDS011;593;53.184;8.216;2023-08-07T00:07:44;2.17;;;1.97;;
1206;SDS011;593;53.184;8.216;2023-08-07T00:10:10;2.40;;;2.30;;
1206;SDS011;593;53.184;8.216;2023-08-07T00:12:35;2.63;;;2.33;;
1206;SDS011;593;53.184;8.216;2023-08-07T00:15:01;2.70;;;2.50;;
1206;SDS011;593;53.184;8.216;2023-08-07T00:17:27;2.70;;;2.50;;
1206;SDS011;593;53.184;8.216;2023-08-07T00:19:53;3.17;;;2.00;;
1206;SDS011;593;53.184;8.216;2023-08-07T00:22:18;2.53;;;2.20;;
1206;SDS011;593;53.184;8.216;2023-08-07T00:24:44;3.50;;;2.50;;
1206;SDS011;593;53.184;8.216;2023-08-07T00:27:09;5.33;;;2.10;;
1206;SDS011;593;53.184;8.216;2023-08-07T00:29:35;1.90;;;1.80;;
1206;SDS011;593;53.184;8.216;2023-08-07T00:32:01;2.00;;;1.80;;
1206;SDS011;593;53.184;8.216;2023-08-07T00:34:27;3.53;;;2.60;;
1206;SDS011;593;53.184;8.216;2023-08-07T00:36:53;2.63;;;2.43;;
1206;SDS011;593;53.184;8.216;2023-08-07T00:39:18;1.83;;;1.73;;
1206;SDS011;593;53.184;8.216;2023-08-07T00:41:43;2.90;;;1.97;;
1206;SDS011;593;53.184;8.216;2023-08-07T00:44:09;4.50;;;2.47;;
1206;SDS011;593;53.184;8.216;2023-08-07T00:46:34;3.37;;;2.27;;
1206;SDS011;593;53.184;8.216;2023-08-07T00:49:00;5.67;;;2.30;;
1206;SDS011;593;53.184;8.216;2023-08-07T00:51:27;2.47;;;2.37;;
1206;SDS011;593;53.184;8.216;2023-08-07T00:53:52;1.80;;;1.70;;
1206;SDS011;593;53.184;8.216;2023-08-07T00:56:17;2.90;;;2.33;;
1206;SDS011;593;53.184;8.216;2023-08-07T00:58:43;2.53;;;2.07;;
1206;SDS011;593;53.184;8.216;2023-08-07T01:01:08;2.60;;;2.40;;
1206;SDS011;593;53.184;8.216;2023-08-07T01:03:34;2.90;;;2.70;;
1206;SDS011;593;53.184;8.216;2023-08-07T01:05:59;3.00;;;2.50;;
1206;SDS011;593;53.184;8.216;2023-08-07T01:08:25;1.80;;;1.70;;
1206;SDS011;593;53.184;8.216;2023-08-07T01:16:26;2.17;;;2.00;;
1206;SDS011;593;53.184;8.216;2023-08-07T01:19:02;7.47;;;3.10;;
1206;SDS011;593;53.184;8.216;2023-08-07T01:21:29;5.37;;;2.40;;
1206;SDS011;593;53.184;8.216;2023-08-07T01:23:58;2.10;;;2.00;;
1206;SDS011;593;53.184;8.216;2023-08-07T01:26:24;3.30;;;2.47;;
1206;SDS011;593;53.184;8.216;2023-08-07T01:31:44;3.70;;;2.30;;
1206;SDS011;593;53.184;8.216;2023-08-07T01:34:12;3.33;;;2.30;;
1206;SDS011;593;53.184;8.216;2023-08-07T01:36:42;2.87;;;2.67;;
1206;SDS011;593;53.184;8.216;2023-08-07T01:39:09;2.07;;;1.87;;
1206;SDS011;593;53.184;8.216;2023-08-07T01:41:36;2.53;;;2.27;;
1206;SDS011;593;53.184;8.216;2023-08-07T01:44:01;2.57;;;2.37;;
1206;SDS011;593;53.184;8.216;2023-08-07T01:46:27;3.37;;;3.07;;
1206;SDS011;593;53.184;8.216;2023-08-07T01:48:53;5.30;;;2.83;;
1206;SDS011;593;53.184;8.216;2023-08-07T01:51:18;2.80;;;2.60;;
1206;SDS011;593;53.184;8.216;2023-08-07T01:53:44;3.10;;;2.07;;
1206;SDS011;593;53.184;8.216;2023-08-07T01:56:09;4.17;;;3.23;;
1206;SDS011;593;53.184;8.216;2023-08-07T01:58:34;5.50;;;2.27;;
1206;SDS011;593;53.184;8.216;2023-08-07T02:01:00;2.53;;;2.37;;
1206;SDS011;593;53.184;8.216;2023-08-07T02:03:25;4.10;;;2.60;;
1206;SDS011;593;53.184;8.216;2023-08-07T02:05:51;2.43;;;2.23;;
1206;SDS011;593;53.184;8.216;2023-08-07T02:08:16;2.93;;;2.73;;
1206;SDS011;593;53.184;8.216;2023-08-07T02:10:42;3.30;;;3.00;;
1206;SDS011;593;53.184;8.216;2023-08-07T02:13:07;3.30;;;2.13;;
1206;SDS011;593;53.184;8.216;2023-08-07T02:15:32;5.20;;;2.73;;
1206;SDS011;593;53.184;8.216;2023-08-07T02:17:58;2.77;;;2.57;;
1206;SDS011;593;53.184;8.216;2023-08-07T02:20:23;4.80;;;2.33;;
1206;SDS011;593;53.184;8.216;2023-08-07T02:22:48;3.27;;;3.07;;
1206;SDS011;593;53.184;8.216;2023-08-07T02:25:14;4.70;;;2.33;;
1206;SDS011;593;53.184;8.216;2023-08-07T02:27:40;2.90;;;2.40;;
1206;SDS011;593;53.184;8.216;2023-08-07T02:30:06;2.67;;;2.47;;
1206;SDS011;593;53.184;8.216;2023-08-07T02:32:31;2.93;;;2.60;;
1206;SDS011;593;53.184;8.216;2023-08-07T02:34:57;4.00;;;2.50;;
1206;SDS011;593;53.184;8.216;2023-08-07T02:37:22;4.50;;;3.30;;
1206;SDS011;593;53.184;8.216;2023-08-07T02:39:48;2.70;;;2.37;;
1206;SDS011;593;53.184;8.216;2023-08-07T02:42:13;5.23;;;3.20;;
1206;SDS011;593;53.184;8.216;2023-08-07T02:44:39;2.80;;;2.60;;
1206;SDS011;593;53.184;8.216;2023-08-07T02:47:04;4.37;;;3.30;;
1206;SDS011;593;53.184;8.216;2023-08-07T02:49:29;3.20;;;2.60;;
1206;SDS011;593;53.184;8.216;2023-08-07T02:51:55;2.83;;;2.30;;
1206;SDS011;593;53.184;8.216;2023-08-07T02:54:20;2.60;;;2.30;;
1206;SDS011;593;53.184;8.216;2023-08-07T02:56:46;3.90;;;2.30;;
1206;SDS011;593;53.184;8.216;2023-08-07T02:59:11;2.20;;;2.00;;
1206;SDS011;593;53.184;8.216;2023-08-07T03:01:36;2.20;;;2.00;;
1206;SDS011;593;53.184;8.216;2023-08-07T03:04:02;3.03;;;2.07;;
1206;SDS011;593;53.184;8.216;2023-08-07T03:06:27;2.10;;;1.90;;
1206;SDS011;593;53.184;8.216;2023-08-07T03:08:53;1.80;;;1.70;;
1206;SDS011;593;53.184;8.216;2023-08-07T03:11:18;1.90;;;1.80;;
1206;SDS011;593;53.184;8.216;2023-08-07T03:13:44;4.20;;;1.80;;
1206;SDS011;593;53.184;8.216;2023-08-07T03:16:09;1.77;;;1.40;;
1206;SDS011;593;53.184;8.216;2023-08-07T03:18:34;2.90;;;1.80;;
1206;SDS011;593;53.184;8.216;2023-08-07T03:21:00;2.37;;;1.60;;
1206;SDS011;593;53.184;8.216;2023-08-07T03:23:26;2.27;;;1.70;;
1206;SDS011;593;53.184;8.216;2023-08-07T03:26:01;4.70;;;2.03;;
1206;SDS011;593;53.184;8.216;2023-08-07T03:28:37;2.90;;;2.30;;
1206;SDS011;593;53.184;8.216;2023-08-07T03:31:02;6.90;;;2.43;;
1206;SDS011;593;53.184;8.216;2023-08-07T03:33:28;2.73;;;2.60;;
1206;SDS011;593;53.184;8.216;2023-08-07T03:35:54;2.87;;;2.47;;
1206;SDS011;593;53.184;8.216;2023-08-07T03:38:19;5.83;;;2.53;;
1206;SDS011;593;53.184;8.216;2023-08-07T03:40:45;4.20;;;2.13;;
1206;SDS011;593;53.184;8.216;2023-08-07T03:43:11;2.50;;;2.00;;
1206;SDS011;593;53.184;8.216;2023-08-07T03:45:36;2.53;;;2.33;;
1206;SDS011;593;53.184;8.216;2023-08-07T03:48:01;2.00;;;1.90;;
1206;SDS011;593;53.184;8.216;2023-08-07T03:50:27;2.43;;;1.93;;
1206;SDS011;593;53.184;8.216;2023-08-07T03:52:52;2.27;;;1.80;;
1206;SDS011;593;53.184;8.216;2023-08-07T03:55:18;2.50;;;2.30;;
1206;SDS011;593;53.184;8.216;2023-08-07T03:57:43;2.93;;;1.73;;
1206;SDS011;593;53.184;8.216;2023-08-07T04:00:09;2.87;;;1.80;;
1206;SDS011;593;53.184;8.216;2023-08-07T04:02:34;3.60;;;2.20;;
1206;SDS011;593;53.184;8.216;2023-08-07T04:05:00;2.00;;;1.90;;
1206;SDS011;593;53.184;8.216;2023-08-07T04:07:25;2.13;;;1.80;;
1206;SDS011;593;53.184;8.216;2023-08-07T04:09:50;2.53;;;1.60;;
1206;SDS011;593;53.184;8.216;2023-08-07T04:12:16;1.70;;;1.60;;
1206;SDS011;593;53.184;8.216;2023-08-07T04:14:41;2.13;;;1.93;;
1206;SDS011;593;53.184;8.216;2023-08-07T04:17:07;1.97;;;1.87;;
1206;SDS011;593;53.184;8.216;2023-08-07T04:19:32;1.27;;;1.17;;
1206;SDS011;593;53.184;8.216;2023-08-07T04:21:57;1.73;;;1.60;;
1206;SDS011;593;53.184;8.216;2023-08-07T04:24:23;2.40;;;1.83;;
1206;SDS011;593;53.184;8.216;2023-08-07T04:26:48;1.93;;;1.10;;
1206;SDS011;593;53.184;8.216;2023-08-07T04:29:14;1.40;;;1.30;;
1206;SDS011;593;53.184;8.216;2023-08-07T04:31:39;2.50;;;1.30;;
1206;SDS011;593;53.184;8.216;2023-08-07T04:34:04;1.53;;;1.33;;
1206;SDS011;593;53.184;8.216;2023-08-07T04:36:30;2.27;;;1.47;;
1206;SDS011;593;53.184;8.216;2023-08-07T04:38:55;4.77;;;2.30;;
1206;SDS011;593;53.184;8.216;2023-08-07T04:41:21;1.30;;;1.10;;
1206;SDS011;593;53.184;8.216;2023-08-07T04:43:46;0.97;;;0.90;;
1206;SDS011;593;53.184;8.216;2023-08-07T04:46:13;2.00;;;1.00;;
1206;SDS011;593;53.184;8.216;2023-08-07T04:48:38;1.03;;;0.93;;
1206;SDS011;593;53.184;8.216;2023-08-07T04:51:04;1.47;;;1.10;;
1206;SDS011;593;53.184;8.216;2023-08-07T04:53:29;1.73;;;0.90;;
1206;SDS011;593;53.184;8.216;2023-08-07T04:55:54;1.70;;;1.10;;
1206;SDS011;593;53.184;8.216;2023-08-07T04:58:20;1.63;;;0.93;;
1206;SDS011;593;53.184;8.216;2023-08-07T05:00:45;1.03;;;0.93;;
1206;SDS011;593;53.184;8.216;2023-08-07T05:03:10;3.60;;;1.03;;
1206;SDS011;593;53.184;8.216;2023-08-07T05:05:36;1.83;;;0.90;;
1206;SDS011;593;53.184;8.216;2023-08-07T05:08:01;2.13;;;1.10;;
1206;SDS011;593;53.184;8.216;2023-08-07T05:10:27;2.20;;;1.17;;
1206;SDS011;593;53.184;8.216;2023-08-07T05:12:52;1.80;;;1.00;;
1206;SDS011;593;53.184;8.216;2023-08-07T05:15:24;1.50;;;0.83;;
1206;SDS011;593;53.184;8.216;2023-08-07T05:17:53;1.53;;;1.10;;
1206;SDS011;593;53.184;8.216;2023-08-07T05:20:19;1.03;;;0.93;;
1206;SDS011;593;53.184;8.216;2023-08-07T05:22:44;1.70;;;1.30;;
1206;SDS011;593;53.184;8.216;2023-08-07T05:25:10;1.27;;;1.00;;
1206;SDS011;593;53.184;8.216;2023-08-07T05:27:37;1.97;;;1.20;;
1206;SDS011;593;53.184;8.216;2023-08-07T05:30:03;1.67;;;1.00;;
1206;SDS011;593;53.184;8.216;2023-08-07T05:32:29;1.77;;;1.10;;
1206;SDS011;593;53.184;8.216;2023-08-07T05:34:54;1.63;;;1.00;;
1206;SDS011;593;53.184;8.216;2023-08-07T05:37:20;1.40;;;0.97;;
1206;SDS011;593;53.184;8.216;2023-08-07T05:39:45;3.13;;;1.40;;
1206;SDS011;593;53.184;8.216;2023-08-07T05:42:10;1.97;;;1.53;;
1206;SDS011;593;53.184;8.216;2023-08-07T05:44:37;3.17;;;1.00;;
1206;SDS011;593;53.184;8.216;2023-08-07T05:47:03;3.80;;;1.57;;
1206;SDS011;593;53.184;8.216;2023-08-07T05:49:28;5.77;;;1.40;;
1206;SDS011;593;53.184;8.216;2023-08-07T05:51:54;2.87;;;1.23;;
1206;SDS011;593;53.184;8.216;2023-08-07T05:54:22;2.10;;;1.00;;
1206;SDS011;593;53.184;8.216;2023-08-07T05:56:47;2.07;;;1.10;;
1206;SDS011;593;53.184;8.216;2023-08-07T05:59:13;1.13;;;1.03;;
1206;SDS011;593;53.184;8.216;2023-08-07T06:01:38;1.70;;;1.03;;
1206;SDS011;593;53.184;8.216;2023-08-07T06:04:03;2.27;;;1.13;;
1206;SDS011;593;53.184;8.216;2023-08-07T06:06:29;1.13;;;0.90;;
1206;SDS011;593;53.184;8.216;2023-08-07T06:08:55;1.90;;;1.17;;
1206;SDS011;593;53.184;8.216;2023-08-07T06:11:20;3.60;;;1.17;;
1206;SDS011;593;53.184;8.216;2023-08-07T06:13:46;1.83;;;1.10;;
1206;SDS011;593;53.184;8.216;2023-08-07T06:16:11;3.40;;;1.20;;
1206;SDS011;593;53.184;8.216;2023-08-07T06:18:37;2.00;;;1.20;;
1206;SDS011;593;53.184;8.216;2023-08-07T06:21:02;1.57;;;0.97;;
1206;SDS011;593;53.184;8.216;2023-08-07T06:23:31;3.17;;;1.17;;
1206;SDS011;593;53.184;8.216;2023-08-07T06:25:57;1.83;;;0.93;;
1206;SDS011;593;53.184;8.216;2023-08-07T06:28:22;3.23;;;1.13;;
1206;SDS011;593;53.184;8.216;2023-08-07T06:30:47;1.93;;;1.03;;
1206;SDS011;593;53.184;8.216;2023-08-07T06:33:13;2.20;;;1.00;;
1206;SDS011;593;53.184;8.216;2023-08-07T06:35:38;2.40;;;1.50;;
1206;SDS011;593;53.184;8.216;2023-08-07T06:38:04;3.97;;;1.00;;
1206;SDS011;593;53.184;8.216;2023-08-07T06:40:30;6.00;;;1.53;;
1206;SDS011;593;53.184;8.216;2023-08-07T06:42:55;5.07;;;1.83;;
1206;SDS011;593;53.184;8.216;2023-08-07T06:45:20;3.60;;;1.40;;
1206;SDS011;593;53.184;8.216;2023-08-07T06:47:46;5.20;;;2.10;;
1206;SDS011;593;53.184;8.216;2023-08-07T06:50:12;3.40;;;2.00;;
1206;SDS011;593;53.184;8.216;2023-08-07T06:52:38;6.53;;;1.97;;
1206;SDS011;593;53.184;8.216;2023-08-07T06:55:03;2.07;;;1.40;;
1206;SDS011;593;53.184;8.216;2023-08-07T06:57:29;4.07;;;1.90;;
1206;SDS011;593;53.184;8.216;2023-08-07T06:59:55;7.57;;;1.60;;
1206;SDS011;593;53.184;8.216;2023-08-07T07:02:20;5.83;;;2.10;;
1206;SDS011;593;53.184;8.216;2023-08-07T07:04:46;4.00;;;2.10;;
1206;SDS011;593;53.184;8.216;2023-08-07T07:07:11;4.40;;;2.10;;
1206;SDS011;593;53.184;8.216;2023-08-07T07:09:36;4.93;;;2.00;;
1206;SDS011;593;53.184;8.216;2023-08-07T07:12:02;4.13;;;2.17;;
1206;SDS011;593;53.184;8.216;2023-08-07T07:14:27;8.50;;;2.47;;
1206;SDS011;593;53.184;8.216;2023-08-07T07:16:53;4.27;;;1.77;;
1206;SDS011;593;53.184;8.216;2023-08-07T07:19:18;6.10;;;1.87;;
1206;SDS011;593;53.184;8.216;2023-08-07T07:21:43;4.07;;;2.50;;
1206;SDS011;593;53.184;8.216;2023-08-07T07:24:09;7.17;;;2.67;;
1206;SDS011;593;53.184;8.216;2023-08-07T07:26:35;4.50;;;2.13;;
1206;SDS011;593;53.184;8.216;2023-08-07T07:29:00;5.13;;;3.40;;
1206;SDS011;593;53.184;8.216;2023-08-07T07:31:26;4.20;;;2.60;;
1206;SDS011;593;53.184;8.216;2023-08-07T07:33:51;5.77;;;2.63;;
1206;SDS011;593;53.184;8.216;2023-08-07T07:36:17;8.80;;;2.33;;
1206;SDS011;593;53.184;8.216;2023-08-07T07:38:45;3.63;;;1.73;;
1206;SDS011;593;53.184;8.216;2023-08-07T07:41:11;4.63;;;2.33;;
1206;SDS011;593;53.184;8.216;2023-08-07T07:43:37;4.87;;;1.73;;
1206;SDS011;593;53.184;8.216;2023-08-07T07:46:03;4.23;;;2.07;;
1206;SDS011;593;53.184;8.216;2023-08-07T07:48:29;4.20;;;1.90;;
1206;SDS011;593;53.184;8.216;2023-08-07T07:51:00;5.13;;;2.70;;
1206;SDS011;593;53.184;8.216;2023-08-07T07:53:27;6.23;;;1.50;;
1206;SDS011;593;53.184;8.216;2023-08-07T07:55:53;4.70;;;1.60;;
1206;SDS011;593;53.184;8.216;2023-08-07T07:58:19;3.27;;;1.90;;
1206;SDS011;593;53.184;8.216;2023-08-07T08:00:45;5.13;;;1.97;;
1206;SDS011;593;53.184;8.216;2023-08-07T08:03:10;2.20;;;1.53;;
1206;SDS011;593;53.184;8.216;2023-08-07T08:05:37;4.07;;;1.77;;
1206;SDS011;593;53.184;8.216;2023-08-07T08:08:02;3.90;;;1.37;;
1206;SDS011;593;53.184;8.216;2023-08-07T08:10:28;4.00;;;2.30;;
1206;SDS011;593;53.184;8.216;2023-08-07T08:12:56;3.20;;;1.60;;
1206;SDS011;593;53.184;8.216;2023-08-07T08:15:22;7.43;;;1.40;;
1206;SDS011;593;53.184;8.216;2023-08-07T08:17:47;4.57;;;1.90;;
1206;SDS011;593;53.184;8.216;2023-08-07T08:20:14;4.73;;;1.30;;
1206;SDS011;593;53.184;8.216;2023-08-07T08:22:43;3.50;;;1.00;;
1206;SDS011;593;53.184;8.216;2023-08-07T08:25:09;4.07;;;1.30;;
1206;SDS011;593;53.184;8.216;2023-08-07T08:27:36;9.40;;;1.50;;
1206;SDS011;593;53.184;8.216;2023-08-07T08:30:05;5.17;;;1.43;;
1206;SDS011;593;53.184;8.216;2023-08-07T08:32:31;3.83;;;2.17;;
1206;SDS011;593;53.184;8.216;2023-08-07T08:34:57;3.00;;;1.30;;
1206;SDS011;593;53.184;8.216;2023-08-07T08:37:23;4.80;;;1.70;;
1206;SDS011;593;53.184;8.216;2023-08-07T08:39:49;2.93;;;1.30;;
1206;SDS011;593;53.184;8.216;2023-08-07T08:42:15;3.87;;;1.60;;
1206;SDS011;593;53.184;8.216;2023-08-07T08:44:46;3.90;;;1.40;;
1206;SDS011;593;53.184;8.216;2023-08-07T08:47:16;1.90;;;1.33;;
1206;SDS011;593;53.184;8.216;2023-08-07T08:49:43;4.97;;;1.77;;
1206;SDS011;593;53.184;8.216;2023-08-07T08:52:15;2.40;;;1.40;;
1206;SDS011;593;53.184;8.216;2023-08-07T08:54:42;2.67;;;0.97;;
1206;SDS011;593;53.184;8.216;2023-08-07T08:57:08;5.10;;;1.77;;
1206;SDS011;593;53.184;8.216;2023-08-07T08:59:36;5.40;;;1.43;;
1206;SDS011;593;53.184;8.216;2023-08-07T09:02:01;2.60;;;1.63;;
1206;SDS011;593;53.184;8.216;2023-08-07T09:04:28;6.47;;;1.57;;
1206;SDS011;593;53.184;8.216;2023-08-07T09:06:53;3.87;;;1.90;;
1206;SDS011;593;53.184;8.216;2023-08-07T09:09:20;8.30;;;1.97;;
1206;SDS011;593;53.184;8.216;2023-08-07T09:11:49;7.33;;;2.03;;
1206;SDS011;593;53.184;8.216;2023-08-07T09:14:17;4.93;;;1.67;;
1206;SDS011;593;53.184;8.216;2023-08-07T09:16:47;4.00;;;1.30;;
1206;SDS011;593;53.184;8.216;2023-08-07T09:19:13;4.50;;;2.23;;
1206;SDS011;593;53.184;8.216;2023-08-07T09:21:39;4.93;;;1.80;;
1206;SDS011;593;53.184;8.216;2023-08-07T09:24:04;2.50;;;1.20;;
1206;SDS011;593;53.184;8.216;2023-08-07T09:26:31;4.53;;;1.93;;
1206;SDS011;593;53.184;8.216;2023-08-07T09:28:58;4.80;;;1.80;;
1206;SDS011;593;53.184;8.216;2023-08-07T09:31:24;4.33;;;1.40;;
1206;SDS011;593;53.184;8.216;2023-08-07T09:33:53;3.87;;;1.50;;
1206;SDS011;593;53.184;8.216;2023-08-07T09:36:19;5.50;;;1.53;;
1206;SDS011;593;53.184;8.216;2023-08-07T09:38:49;4.33;;;1.47;;
1206;SDS011;593;53.184;8.216;2023-08-07T09:41:17;5.03;;;1.30;;
1206;SDS011;593;53.184;8.216;2023-08-07T09:43:44;4.03;;;1.53;;
1206;SDS011;593;53.184;8.216;2023-08-07T09:46:09;4.00;;;1.20;;
1206;SDS011;593;53.184;8.216;2023-08-07T09:48:39;5.70;;;1.50;;
1206;SDS011;593;53.184;8.216;2023-08-07T09:51:05;5.13;;;1.40;;
1206;SDS011;593;53.184;8.216;2023-08-07T09:53:30;2.70;;;1.10;;
1206;SDS011;593;53.184;8.216;2023-08-07T09:55:56;4.57;;;1.60;;
1206;SDS011;593;53.184;8.216;2023-08-07T09:58:22;4.57;;;1.67;;
1206;SDS011;593;53.184;8.216;2023-08-07T10:00:49;5.77;;;1.33;;
1206;SDS011;593;53.184;8.216;2023-08-07T10:03:15;3.77;;;1.20;;
1206;SDS011;593;53.184;8.216;2023-08-07T10:05:42;4.17;;;0.90;;
1206;SDS011;593;53.184;8.216;2023-08-07T10:08:08;5.07;;;1.53;;
1206;SDS011;593;53.184;8.216;2023-08-07T10:10:35;2.80;;;1.40;;
1206;SDS011;593;53.184;8.216;2023-08-07T10:13:02;4.67;;;1.40;;
1206;SDS011;593;53.184;8.216;2023-08-07T10:15:29;1.90;;;1.10;;
1206;SDS011;593;53.184;8.216;2023-08-07T10:17:55;3.80;;;1.47;;
1206;SDS011;593;53.184;8.216;2023-08-07T10:20:21;2.50;;;1.20;;
1206;SDS011;593;53.184;8.216;2023-08-07T10:22:49;2.43;;;1.07;;
1206;SDS011;593;53.184;8.216;2023-08-07T10:25:16;3.50;;;1.57;;
1206;SDS011;593;53.184;8.216;2023-08-07T10:27:50;3.63;;;1.03;;
1206;SDS011;593;53.184;8.216;2023-08-07T10:30:18;2.80;;;1.30;;
1206;SDS011;593;53.184;8.216;2023-08-07T10:32:45;2.03;;;1.17;;
1206;SDS011;593;53.184;8.216;2023-08-07T10:35:23;3.67;;;1.20;;
1206;SDS011;593;53.184;8.216;2023-08-07T10:37:54;2.20;;;1.07;;
1206;SDS011;593;53.184;8.216;2023-08-07T10:40:19;1.60;;;0.90;;
1206;SDS011;593;53.184;8.216;2023-08-07T10:42:50;4.10;;;1.93;;
1206;SDS011;593;53.184;8.216;2023-08-07T10:45:18;7.10;;;1.70;;
1206;SDS011;593;53.184;8.216;2023-08-07T10:47:56;5.17;;;1.90;;
1206;SDS011;593;53.184;8.216;2023-08-07T10:50:32;5.53;;;1.83;;
1206;SDS011;593;53.184;8.216;2023-08-07T10:53:04;3.43;;;1.30;;
1206;SDS011;593;53.184;8.216;2023-08-07T10:55:45;4.63;;;1.43;;
1206;SDS011;593;53.184;8.216;2023-08-07T10:58:21;6.43;;;1.73;;
1206;SDS011;593;53.184;8.216;2023-08-07T11:00:49;4.90;;;1.60;;
1206;SDS011;593;53.184;8.216;2023-08-07T11:03:27;4.70;;;2.37;;
1206;SDS011;593;53.184;8.216;2023-08-07T11:05:53;2.30;;;1.50;;
1206;SDS011;593;53.184;8.216;2023-08-07T11:08:22;2.80;;;1.30;;
1206;SDS011;593;53.184;8.216;2023-08-07T11:10:49;2.43;;;1.27;;
1206;SDS011;593;53.184;8.216;2023-08-07T11:13:16;2.93;;;1.60;;
1206;SDS011;593;53.184;8.216;2023-08-07T11:15:41;3.67;;;1.60;;
1206;SDS011;593;53.184;8.216;2023-08-07T11:18:07;5.00;;;1.23;;
1206;SDS011;593;53.184;8.216;2023-08-07T11:20:32;3.43;;;1.73;;
1206;SDS011;593;53.184;8.216;2023-08-07T11:23:00;5.60;;;1.43;;
1206;SDS011;593;53.184;8.216;2023-08-07T11:25:26;3.30;;;1.50;;
1206;SDS011;593;53.184;8.216;2023-08-07T11:27:51;2.97;;;1.40;;
1206;SDS011;593;53.184;8.216;2023-08-07T11:30:16;2.67;;;1.53;;
1206;SDS011;593;53.184;8.216;2023-08-07T11:32:42;5.67;;;1.37;;
1206;SDS011;593;53.184;8.216;2023-08-07T11:35:07;3.23;;;1.63;;
1206;SDS011;593;53.184;8.216;2023-08-07T11:37:33;5.13;;;1.33;;
1206;SDS011;593;53.184;8.216;2023-08-07T11:40:00;4.50;;;1.47;;
1206;SDS011;593;53.184;8.216;2023-08-07T11:42:27;7.57;;;1.67;;
1206;SDS011;593;53.184;8.216;2023-08-07T11:44:53;4.20;;;1.13;;
1206;SDS011;593;53.184;8.216;2023-08-07T11:47:18;4.00;;;1.37;;
1206;SDS011;593;53.184;8.216;2023-08-07T11:49:44;4.93;;;1.00;;
1206;SDS011;593;53.184;8.216;2023-08-07T11:52:09;2.50;;;1.30;;
1206;SDS011;593;53.184;8.216;2023-08-07T11:54:35;1.73;;;1.13;;
1206;SDS011;593;53.184;8.216;2023-08-07T11:57:01;3.33;;;1.53;;
1206;SDS011;593;53.184;8.216;2023-08-07T11:59:26;2.43;;;1.17;;
1206;SDS011;593;53.184;8.216;2023-08-07T12:01:52;3.30;;;1.67;;
1206;SDS011;593;53.184;8.216;2023-08-07T12:04:17;2.70;;;0.83;;
1206;SDS011;593;53.184;8.216;2023-08-07T12:06:53;3.40;;;1.20;;
1206;SDS011;593;53.184;8.216;2023-08-07T12:09:19;3.70;;;1.07;;
1206;SDS011;593;53.184;8.216;2023-08-07T12:11:46;3.27;;;1.10;;
1206;SDS011;593;53.184;8.216;2023-08-07T12:14:14;1.00;;;0.90;;
1206;SDS011;593;53.184;8.216;2023-08-07T12:16:43;2.80;;;1.10;;
1206;SDS011;593;53.184;8.216;2023-08-07T12:19:10;1.37;;;1.20;;
1206;SDS011;593;53.184;8.216;2023-08-07T12:21:35;2.23;;;1.07;;
1206;SDS011;593;53.184;8.216;2023-08-07T12:24:01;2.50;;;0.90;;
1206;SDS011;593;53.184;8.216;2023-08-07T12:26:26;3.57;;;1.07;;
1206;SDS011;593;53.184;8.216;2023-08-07T12:28:52;5.77;;;1.37;;
1206;SDS011;593;53.184;8.216;2023-08-07T12:31:18;4.30;;;1.83;;
1206;SDS011;593;53.184;8.216;2023-08-07T12:33:44;3.83;;;1.13;;
1206;SDS011;593;53.184;8.216;2023-08-07T12:36:09;8.00;;;1.40;;
1206;SDS011;593;53.184;8.216;2023-08-07T12:38:35;3.63;;;1.07;;
1206;SDS011;593;53.184;8.216;2023-08-07T12:41:01;1.87;;;1.10;;
1206;SDS011;593;53.184;8.216;2023-08-07T12:43:28;4.97;;;1.30;;
1206;SDS011;593;53.184;8.216;2023-08-07T12:45:53;2.30;;;1.33;;
1206;SDS011;593;53.184;8.216;2023-08-07T12:48:19;2.53;;;1.20;;
1206;SDS011;593;53.184;8.216;2023-08-07T12:50:44;3.13;;;1.70;;
1206;SDS011;593;53.184;8.216;2023-08-07T12:53:10;2.27;;;1.33;;
1206;SDS011;593;53.184;8.216;2023-08-07T12:55:35;2.37;;;1.47;;
1206;SDS011;593;53.184;8.216;2023-08-07T12:58:01;4.27;;;1.47;;
1206;SDS011;593;53.184;8.216;2023-08-07T13:00:26;4.53;;;1.30;;
1206;SDS011;593;53.184;8.216;2023-08-07T13:02:52;4.97;;;1.60;;
1206;SDS011;593;53.184;8.216;2023-08-07T13:05:19;4.07;;;1.50;;
1206;SDS011;593;53.184;8.216;2023-08-07T13:07:45;2.43;;;1.40;;
1206;SDS011;593;53.184;8.216;2023-08-07T13:10:13;3.17;;;1.23;;
1206;SDS011;593;53.184;8.216;2023-08-07T13:12:39;2.70;;;1.40;;
1206;SDS011;593;53.184;8.216;2023-08-07T13:15:07;4.10;;;1.20;;
1206;SDS011;593;53.184;8.216;2023-08-07T13:17:34;2.53;;;1.10;;
1206;SDS011;593;53.184;8.216;2023-08-07T13:20:03;2.73;;;1.80;;
1206;SDS011;593;53.184;8.216;2023-08-07T13:22:42;5.70;;;2.00;;
1206;SDS011;593;53.184;8.216;2023-08-07T13:25:10;2.07;;;1.20;;
1206;SDS011;593;53.184;8.216;2023-08-07T13:27:37;2.50;;;1.50;;
1206;SDS011;593;53.184;8.216;2023-08-07T13:30:03;6.93;;;2.40;;
1206;SDS011;593;53.184;8.216;2023-08-07T13:32:29;4.50;;;1.40;;
1206;SDS011;593;53.184;8.216;2023-08-07T13:34:54;1.90;;;0.97;;
1206;SDS011;593;53.184;8.216;2023-08-07T13:37:20;2.20;;;1.07;;
1206;SDS011;593;53.184;8.216;2023-08-07T13:39:46;2.87;;;1.30;;
1206;SDS011;593;53.184;8.216;2023-08-07T13:42:14;2.70;;;0.93;;
1206;SDS011;593;53.184;8.216;2023-08-07T13:44:39;1.60;;;1.07;;
1206;SDS011;593;53.184;8.216;2023-08-07T13:47:05;2.20;;;0.90;;
1206;SDS011;593;53.184;8.216;2023-08-07T13:49:30;2.97;;;1.10;;
1206;SDS011;593;53.184;8.216;2023-08-07T13:51:56;1.30;;;1.00;;
1206;SDS011;593;53.184;8.216;2023-08-07T13:54:21;3.53;;;1.27;;
1206;SDS011;593;53.184;8.216;2023-08-07T13:56:47;2.60;;;0.90;;
1206;SDS011;593;53.184;8.216;2023-08-07T13:59:12;4.70;;;1.20;;
1206;SDS011;593;53.184;8.216;2023-08-07T14:01:38;1.27;;;1.13;;
1206;SDS011;593;53.184;8.216;2023-08-07T14:04:03;2.10;;;1.10;;
1206;SDS011;593;53.184;8.216;2023-08-07T14:06:29;2.80;;;1.17;;
1206;SDS011;593;53.184;8.216;2023-08-07T14:08:54;2.60;;;1.30;;
1206;SDS011;593;53.184;8.216;2023-08-07T14:11:20;1.90;;;1.20;;
1206;SDS011;593;53.184;8.216;2023-08-07T14:13:45;2.80;;;1.00;;
1206;SDS011;593;53.184;8.216;2023-08-07T14:16:12;2.93;;;1.17;;
1206;SDS011;593;53.184;8.216;2023-08-07T14:18:38;4.80;;;1.37;;
1206;SDS011;593;53.184;8.216;2023-08-07T14:21:04;4.20;;;1.30;;
1206;SDS011;593;53.184;8.216;2023-08-07T14:23:29;2.53;;;0.80;;
1206;SDS011;593;53.184;8.216;2023-08-07T14:25:55;4.60;;;0.90;;
1206;SDS011;593;53.184;8.216;2023-08-07T14:28:21;5.23;;;1.13;;
1206;SDS011;593;53.184;8.216;2023-08-07T14:30:47;1.13;;;1.00;;
1206;SDS011;593;53.184;8.216;2023-08-07T14:33:12;1.30;;;0.90;;
1206;SDS011;593;53.184;8.216;2023-08-07T14:35:38;1.53;;;0.90;;
1206;SDS011;593;53.184;8.216;2023-08-07T14:38:03;3.90;;;1.27;;
1206;SDS011;593;53.184;8.216;2023-08-07T14:40:28;3.70;;;1.33;;
1206;SDS011;593;53.184;8.216;2023-08-07T14:42:54;1.70;;;1.00;;
1206;SDS011;593;53.184;8.216;2023-08-07T14:45:20;1.83;;;0.80;;
1206;SDS011;593;53.184;8.216;2023-08-07T14:47:47;0.90;;;0.80;;
1206;SDS011;593;53.184;8.216;2023-08-07T14:50:13;1.57;;;0.70;;
1206;SDS011;593;53.184;8.216;2023-08-07T14:52:38;2.03;;;1.00;;
1206;SDS011;593;53.184;8.216;2023-08-07T14:55:04;1.93;;;1.20;;
1206;SDS011;593;53.184;8.216;2023-08-07T14:57:29;3.27;;;1.27;;
1206;SDS011;593;53.184;8.216;2023-08-07T14:59:55;1.87;;;1.00;;
1206;SDS011;593;53.184;8.216;2023-08-07T15:02:20;3.93;;;3.00;;
1206;SDS011;593;53.184;8.216;2023-08-07T15:04:45;2.47;;;1.37;;
1206;SDS011;593;53.184;8.216;2023-08-07T15:07:12;2.13;;;1.10;;
1206;SDS011;593;53.184;8.216;2023-08-07T15:09:37;3.87;;;1.50;;
1206;SDS011;593;53.184;8.216;2023-08-07T15:12:03;2.10;;;1.17;;
1206;SDS011;593;53.184;8.216;2023-08-07T15:14:31;2.70;;;1.30;;
1206;SDS011;593;53.184;8.216;2023-08-07T15:16:57;3.73;;;1.43;;
1206;SDS011;593;53.184;8.216;2023-08-07T15:19:22;2.20;;;1.40;;
1206;SDS011;593;53.184;8.216;2023-08-07T15:21:49;1.63;;;1.10;;
1206;SDS011;593;53.184;8.216;2023-08-07T15:24:15;3.30;;;1.30;;
1206;SDS011;593;53.184;8.216;2023-08-07T15:26:43;3.47;;;1.53;;
1206;SDS011;593;53.184;8.216;2023-08-07T15:29:09;3.73;;;2.00;;
1206;SDS011;593;53.184;8.216;2023-08-07T15:31:34;4.07;;;1.40;;